Time;durP1;ratioP1;P1;durP2;ratioP2;P2;SDS_P1;SDS_P2;PMS_P1;PMS_P2;Temp;Humidity;BMP_temperature;BMP_pressure;BME280_temperature;BME280_humidity;BME280_pressure;Samples;Min_cycle;Max_cycle;Signal;HPM_P1;HPM_P2
2023/06/25 00:00:05;;;;;;;14.70;11.55;;;18.20;99.90;;;;;;5054897;28;20040;-84
2023/06/25 00:02:31;;;;;;;15.02;10.85;;;18.20;99.90;;;;;;5054786;28;20417;-84
2023/06/25 00:04:56;;;;;;;15.45;11.45;;;18.10;99.90;;;;;;5054859;28;20044;-83
2023/06/25 00:07:22;;;;;;;15.25;11.38;;;18.10;99.90;;;;;;5038044;28;20055;-83
2023/06/25 00:09:55;;;;;;;17.90;11.63;;;18.10;99.90;;;;;;5038073;28;20554;-83
2023/06/25 00:12:22;;;;;;;15.68;11.68;;;18.10;99.90;;;;;;5054385;28;20037;-83
2023/06/25 00:14:48;;;;;;;17.33;12.05;;;18.10;99.90;;;;;;5054675;28;20040;-83
2023/06/25 00:17:17;;;;;;;16.63;12.43;;;18.10;99.90;;;;;;5054275;28;20043;-84
2023/06/25 00:19:44;;;;;;;16.05;11.77;;;18.10;99.90;;;;;;5055092;28;20076;-83
2023/06/25 00:22:11;;;;;;;14.90;11.48;;;18.00;99.90;;;;;;5037811;28;20056;-83
2023/06/25 00:24:40;;;;;;;15.00;11.50;;;18.00;99.90;;;;;;5054944;28;20076;-83
2023/06/25 00:27:06;;;;;;;17.02;11.88;;;18.00;99.90;;;;;;5070865;28;20043;-83
2023/06/25 00:29:35;;;;;;;14.50;11.35;;;17.90;99.90;;;;;;5037789;28;20119;-83
2023/06/25 00:32:01;;;;;;;16.27;11.85;;;17.90;99.90;;;;;;5054215;28;20207;-83
2023/06/25 00:34:26;;;;;;;15.68;11.60;;;17.90;99.90;;;;;;5071344;28;20127;-83
2023/06/25 00:36:52;;;;;;;16.02;11.68;;;17.90;99.90;;;;;;5054231;28;20482;-83
2023/06/25 00:39:19;;;;;;;18.40;11.98;;;17.90;99.90;;;;;;5037785;28;20340;-83
2023/06/25 00:41:45;;;;;;;15.80;11.70;;;17.80;99.90;;;;;;5053851;28;20044;-83
2023/06/25 00:44:11;;;;;;;19.73;12.25;;;17.80;99.90;;;;;;5037644;28;20040;-83
2023/06/25 00:46:37;;;;;;;15.43;11.98;;;17.80;99.90;;;;;;5070712;28;20051;-83
2023/06/25 00:49:05;;;;;;;16.38;11.73;;;17.80;99.90;;;;;;5037445;28;21096;-82
2023/06/25 00:51:35;;;;;;;18.52;12.63;;;17.80;99.90;;;;;;5070565;28;20091;-82
2023/06/25 00:54:05;;;;;;;15.85;12.18;;;17.80;99.90;;;;;;5053935;28;20461;-82
2023/06/25 00:56:37;;;;;;;20.08;12.27;;;17.80;99.90;;;;;;5070748;28;20469;-82
2023/06/25 00:59:03;;;;;;;15.18;11.57;;;17.70;99.90;;;;;;5053951;28;20501;-82
2023/06/25 01:01:44;;;;;;;21.15;12.93;;;17.70;99.90;;;;;;5037457;28;20036;-83
2023/06/25 01:04:25;;;;;;;16.77;12.55;;;17.70;99.90;;;;;;5053824;28;20062;-82
2023/06/25 01:06:55;;;;;;;18.15;13.32;;;17.70;99.90;;;;;;5070196;28;20497;-82
2023/06/25 01:09:22;;;;;;;19.25;13.75;;;17.60;99.90;;;;;;5069434;28;20059;-83
2023/06/25 01:12:02;;;;;;;18.38;13.60;;;17.60;99.90;;;;;;5053471;28;20090;-82
2023/06/25 01:14:28;;;;;;;21.00;13.95;;;17.60;99.90;;;;;;5069915;28;20422;-82
2023/06/25 01:16:57;;;;;;;19.40;12.90;;;17.60;99.90;;;;;;5036908;28;20119;-82
2023/06/25 01:19:29;;;;;;;16.70;12.88;;;17.60;99.90;;;;;;5053377;28;20127;-83
2023/06/25 01:22:01;;;;;;;22.58;14.35;;;17.50;99.90;;;;;;5053557;28;20048;-82
2023/06/25 01:24:28;;;;;;;19.30;13.32;;;17.50;99.90;;;;;;5070151;28;20048;-82
2023/06/25 01:26:59;;;;;;;20.50;13.77;;;17.50;99.90;;;;;;5036590;28;20078;-82
2023/06/25 01:29:26;;;;;;;19.10;14.25;;;17.50;99.90;;;;;;5036730;28;20128;-82
2023/06/25 01:31:53;;;;;;;20.42;14.38;;;17.40;99.90;;;;;;5053056;28;20042;-82
2023/06/25 01:34:22;;;;;;;21.02;14.35;;;17.40;99.90;;;;;;5053238;28;20075;-82
2023/06/25 01:36:52;;;;;;;17.42;14.10;;;17.30;99.90;;;;;;5052847;28;20045;-82
2023/06/25 01:39:19;;;;;;;18.88;14.40;;;17.30;99.90;;;;;;5036647;28;20131;-82
2023/06/25 01:41:46;;;;;;;21.73;15.63;;;17.30;99.90;;;;;;5052859;28;20071;-83
2023/06/25 01:44:17;;;;;;;23.08;15.57;;;17.20;99.90;;;;;;5053307;28;20120;-82
2023/06/25 01:46:42;;;;;;;24.00;15.45;;;17.20;99.90;;;;;;5069510;28;20045;-82
2023/06/25 01:49:08;;;;;;;21.83;14.68;;;17.20;99.90;;;;;;5069198;28;20047;-82
2023/06/25 01:51:34;;;;;;;19.55;15.35;;;17.20;99.90;;;;;;5052797;28;20040;-82
2023/06/25 01:54:00;;;;;;;21.65;15.30;;;17.10;99.90;;;;;;5035949;28;20047;-82
2023/06/25 01:56:25;;;;;;;22.00;15.73;;;17.20;99.90;;;;;;5069547;28;20037;-82
2023/06/25 01:58:53;;;;;;;21.48;15.93;;;17.10;99.90;;;;;;5052587;28;20060;-82
2023/06/25 02:01:22;;;;;;;22.42;16.73;;;17.10;99.90;;;;;;5052812;28;20066;-82
2023/06/25 02:03:48;;;;;;;22.30;16.83;;;17.10;99.90;;;;;;5052688;28;20417;-82
2023/06/25 02:06:14;;;;;;;23.15;16.25;;;17.10;99.90;;;;;;5053032;28;20405;-82
2023/06/25 02:08:40;;;;;;;20.67;16.15;;;17.10;99.90;;;;;;5035716;28;20037;-82
2023/06/25 02:11:07;;;;;;;22.00;15.63;;;17.10;99.90;;;;;;5053128;28;20033;-82
2023/06/25 02:13:34;;;;;;;23.38;17.13;;;17.10;99.90;;;;;;5069383;28;20389;-82
2023/06/25 02:16:00;;;;;;;25.08;17.50;;;17.10;99.90;;;;;;5055456;28;20045;-83
2023/06/25 02:18:32;;;;;;;18.73;14.50;;;17.00;99.90;;;;;;5078655;28;20044;-82
2023/06/25 02:20:58;;;;;;;21.77;15.30;;;17.10;99.90;;;;;;5037414;28;20528;-83
2023/06/25 02:23:24;;;;;;;25.67;17.17;;;17.00;99.90;;;;;;5035626;28;20044;-83
2023/06/25 02:25:50;;;;;;;24.55;17.35;;;17.00;99.90;;;;;;5069357;28;20063;-83
2023/06/25 02:28:16;;;;;;;26.20;17.50;;;17.00;99.90;;;;;;5052273;28;20040;-83
2023/06/25 02:30:42;;;;;;;24.15;16.40;;;17.00;99.90;;;;;;5069137;28;20047;-83
2023/06/25 02:33:08;;;;;;;23.33;17.42;;;17.00;99.90;;;;;;5052693;28;20040;-83
2023/06/25 02:35:34;;;;;;;24.48;17.55;;;16.90;99.90;;;;;;5036129;28;20047;-83
2023/06/25 02:38:00;;;;;;;26.38;17.85;;;16.90;99.90;;;;;;5069553;28;20044;-83
2023/06/25 02:40:27;;;;;;;30.73;18.80;;;16.90;99.90;;;;;;5039180;28;20037;-83
2023/06/25 02:42:53;;;;;;;24.10;17.60;;;16.90;99.90;;;;;;5052980;28;20047;-83
2023/06/25 02:45:19;;;;;;;23.23;16.73;;;16.90;99.90;;;;;;5052909;28;20559;-83
2023/06/25 02:47:45;;;;;;;22.58;17.70;;;16.90;99.90;;;;;;5052442;28;20044;-83
2023/06/25 02:50:10;;;;;;;24.38;17.42;;;16.90;99.90;;;;;;5069235;28;20037;-83
2023/06/25 02:52:36;;;;;;;24.55;18.00;;;16.90;99.90;;;;;;5035468;28;20076;-83
2023/06/25 02:55:02;;;;;;;24.55;18.83;;;16.90;99.90;;;;;;5068783;28;20033;-83
2023/06/25 02:57:31;;;;;;;25.48;18.67;;;16.80;99.90;;;;;;5035518;28;20087;-83
2023/06/25 02:59:57;;;;;;;25.63;18.40;;;16.80;99.90;;;;;;5051725;28;20070;-83
2023/06/25 03:02:23;;;;;;;26.80;19.95;;;16.80;99.90;;;;;;5068744;28;20059;-83
2023/06/25 03:04:49;;;;;;;26.27;19.30;;;16.80;99.90;;;;;;5052228;28;21023;-83
2023/06/25 03:07:14;;;;;;;25.83;19.08;;;16.80;99.90;;;;;;5035063;28;20470;-83
2023/06/25 03:09:41;;;;;;;24.30;16.95;;;16.80;99.90;;;;;;5068322;28;20048;-83
2023/06/25 03:12:08;;;;;;;22.90;18.08;;;16.80;99.90;;;;;;5051955;28;20110;-83
2023/06/25 03:14:34;;;;;;;25.83;17.58;;;16.80;99.90;;;;;;5051983;28;20178;-83
2023/06/25 03:17:00;;;;;;;24.58;18.60;;;16.70;99.90;;;;;;5035245;28;20501;-83
2023/06/25 03:19:25;;;;;;;26.42;19.05;;;16.70;99.90;;;;;;5068339;28;20071;-83
2023/06/25 03:21:51;;;;;;;30.10;20.92;;;16.60;99.90;;;;;;5035325;28;20048;-83
2023/06/25 03:24:17;;;;;;;28.48;20.40;;;16.70;99.90;;;;;;5051791;28;20242;-83
2023/06/25 03:26:43;;;;;;;27.67;19.73;;;16.60;99.90;;;;;;5051796;28;20045;-83
2023/06/25 03:29:08;;;;;;;29.25;20.95;;;16.60;99.90;;;;;;5068158;28;20048;-83
2023/06/25 03:31:34;;;;;;;31.42;20.58;;;16.60;99.90;;;;;;5051233;28;20063;-83
2023/06/25 03:34:00;;;;;;;32.95;20.35;;;16.60;99.90;;;;;;5038609;28;20037;-82
2023/06/25 03:36:25;;;;;;;28.30;20.02;;;16.60;99.90;;;;;;5038839;28;20087;-83
2023/06/25 03:38:51;;;;;;;29.38;19.90;;;16.60;99.90;;;;;;5055037;28;20359;-82
2023/06/25 03:41:17;;;;;;;26.90;19.58;;;16.60;99.90;;;;;;5071924;28;20045;-83
2023/06/25 03:43:42;;;;;;;24.80;18.77;;;16.60;99.90;;;;;;5071448;28;20150;-83
2023/06/25 03:46:08;;;;;;;23.38;17.05;;;16.60;99.90;;;;;;5071720;28;20508;-83
2023/06/25 03:48:34;;;;;;;25.42;18.23;;;16.60;99.90;;;;;;5054723;28;20405;-83
2023/06/25 03:50:59;;;;;;;24.70;18.80;;;16.60;99.90;;;;;;5038424;28;20502;-83
2023/06/25 03:53:26;;;;;;;23.70;17.77;;;16.50;99.90;;;;;;5055121;28;20036;-83
2023/06/25 03:55:52;;;;;;;24.10;18.75;;;16.60;99.90;;;;;;5038432;28;20072;-83
2023/06/25 03:58:18;;;;;;;25.70;17.88;;;16.60;99.90;;;;;;5054930;28;20084;-83
2023/06/25 04:00:44;;;;;;;22.85;17.40;;;16.60;99.90;;;;;;5055275;28;20048;-84
2023/06/25 04:03:10;;;;;;;23.98;17.95;;;16.60;99.90;;;;;;5054875;28;20049;-83
2023/06/25 04:05:36;;;;;;;26.08;17.77;;;16.50;99.90;;;;;;5038190;28;20109;-83
2023/06/25 04:08:02;;;;;;;26.48;17.33;;;16.50;99.90;;;;;;5037927;28;20053;-83
2023/06/25 04:10:29;;;;;;;22.15;17.45;;;16.50;99.90;;;;;;5038075;28;20041;-83
2023/06/25 04:12:54;;;;;;;23.58;17.67;;;16.60;99.90;;;;;;5054901;28;20107;-83
2023/06/25 04:15:20;;;;;;;21.83;16.63;;;16.60;99.90;;;;;;5071500;28;20493;-83
2023/06/25 04:17:49;;;;;;;24.35;17.90;;;16.60;99.90;;;;;;5071054;28;20044;-83
2023/06/25 04:20:15;;;;;;;23.85;17.83;;;16.60;99.90;;;;;;5071558;28;20036;-83
2023/06/25 04:22:40;;;;;;;21.73;16.55;;;16.60;99.90;;;;;;5038049;28;20047;-83
2023/06/25 04:25:06;;;;;;;22.63;16.83;;;16.60;99.90;;;;;;5054885;28;20115;-83
2023/06/25 04:27:32;;;;;;;24.38;18.17;;;16.60;99.90;;;;;;5054132;28;20047;-83
2023/06/25 04:29:58;;;;;;;21.15;16.08;;;16.60;99.90;;;;;;5054456;28;20036;-83
2023/06/25 04:32:24;;;;;;;24.15;16.25;;;16.70;99.90;;;;;;5054226;28;20071;-83
2023/06/25 04:34:49;;;;;;;23.92;16.55;;;16.70;99.90;;;;;;5071038;28;20036;-83
2023/06/25 04:37:15;;;;;;;24.08;17.10;;;16.70;99.90;;;;;;5054346;28;20041;-83
2023/06/25 04:39:41;;;;;;;25.30;16.63;;;16.80;99.90;;;;;;5054096;28;20485;-83
2023/06/25 04:42:07;;;;;;;24.75;16.90;;;16.80;99.90;;;;;;5037142;28;20101;-83
2023/06/25 04:44:32;;;;;;;22.20;15.75;;;16.80;99.90;;;;;;5053221;28;20036;-83
2023/06/25 04:46:58;;;;;;;23.83;16.73;;;16.80;99.90;;;;;;5054337;28;20062;-83
2023/06/25 04:49:24;;;;;;;26.65;16.90;;;16.90;99.90;;;;;;5053831;28;20043;-83
2023/06/25 04:51:49;;;;;;;22.90;16.55;;;16.90;99.90;;;;;;5037217;28;20145;-83
2023/06/25 04:54:15;;;;;;;26.17;17.00;;;16.90;99.90;;;;;;5054104;28;20037;-83
2023/06/25 04:56:41;;;;;;;22.65;17.77;;;17.00;99.90;;;;;;5070475;28;20448;-83
2023/06/25 04:59:07;;;;;;;23.40;17.42;;;17.00;99.90;;;;;;5053942;28;20072;-83
2023/06/25 05:01:32;;;;;;;22.17;16.77;;;17.00;99.90;;;;;;5053553;28;20127;-83
2023/06/25 05:03:59;;;;;;;23.08;17.63;;;17.10;99.90;;;;;;5037156;28;20044;-82
2023/06/25 05:06:25;;;;;;;24.25;16.33;;;17.10;99.90;;;;;;5070518;28;20048;-83
2023/06/25 05:08:50;;;;;;;22.85;16.20;;;17.20;99.90;;;;;;5070183;28;20125;-84
2023/06/25 05:11:16;;;;;;;22.60;16.05;;;17.20;99.90;;;;;;5037147;28;20125;-83
2023/06/25 05:13:41;;;;;;;20.88;16.10;;;17.20;99.90;;;;;;5069939;28;20493;-83
2023/06/25 05:16:07;;;;;;;23.15;17.02;;;17.30;99.90;;;;;;5036897;28;20072;-83
2023/06/25 05:18:33;;;;;;;24.10;16.73;;;17.30;99.90;;;;;;5053395;28;20102;-83
2023/06/25 05:20:59;;;;;;;20.70;16.23;;;17.40;99.90;;;;;;5070764;28;20036;-84
2023/06/25 05:23:25;;;;;;;23.10;16.92;;;17.40;99.90;;;;;;5053303;28;20037;-84
2023/06/25 05:25:51;;;;;;;21.27;17.08;;;17.50;99.90;;;;;;5070188;28;20110;-84
2023/06/25 05:28:17;;;;;;;23.83;16.55;;;17.50;99.90;;;;;;5036706;28;20037;-84
2023/06/25 05:30:43;;;;;;;21.63;15.68;;;17.60;99.90;;;;;;5053460;28;20076;-84
2023/06/25 05:33:08;;;;;;;23.50;17.08;;;17.60;99.90;;;;;;5052988;28;20401;-84
2023/06/25 05:35:34;;;;;;;21.40;16.60;;;17.70;99.90;;;;;;5036734;28;20032;-84
2023/06/25 05:38:00;;;;;;;22.13;16.05;;;17.80;99.90;;;;;;5053051;28;20044;-84
2023/06/25 05:40:27;;;;;;;28.88;16.85;;;17.80;99.90;;;;;;5053154;28;20056;-84
2023/06/25 05:42:54;;;;;;;19.98;15.55;;;17.90;99.90;;;;;;5069332;28;20520;-84
2023/06/25 05:45:21;;;;;;;20.63;14.95;;;18.00;99.90;;;;;;5036900;28;20076;-83
2023/06/25 05:47:46;;;;;;;20.85;15.52;;;18.00;99.90;;;;;;5052625;28;20555;-84
2023/06/25 05:50:12;;;;;;;20.42;15.70;;;18.10;99.90;;;;;;5036640;28;20075;-84
2023/06/25 05:52:40;;;;;;;22.15;16.15;;;18.20;99.90;;;;;;5069301;28;20037;-83
2023/06/25 05:55:06;;;;;;;22.65;15.50;;;18.20;99.90;;;;;;5052731;28;20091;-85
2023/06/25 05:57:32;;;;;;;23.85;16.25;;;18.30;99.90;;;;;;5052683;28;20040;-84
2023/06/25 05:59:58;;;;;;;21.35;16.50;;;18.40;99.90;;;;;;5036119;28;20047;-85
2023/06/25 06:02:24;;;;;;;22.05;15.77;;;18.40;99.90;;;;;;5052657;28;20037;-84
2023/06/25 06:04:50;;;;;;;21.85;15.75;;;18.50;99.90;;;;;;5052784;28;20036;-84
2023/06/25 06:07:15;;;;;;;21.33;16.05;;;18.50;99.90;;;;;;5035814;28;20177;-85
2023/06/25 06:09:41;;;;;;;19.00;15.30;;;18.60;99.90;;;;;;5069211;28;20082;-84
2023/06/25 06:12:07;;;;;;;22.02;16.65;;;18.70;99.90;;;;;;5069053;28;20040;-85
2023/06/25 06:14:37;;;;;;;21.67;16.33;;;18.80;99.90;;;;;;5035819;28;20043;-84
2023/06/25 06:17:04;;;;;;;21.67;15.90;;;18.80;99.90;;;;;;5036543;28;20048;-84
2023/06/25 06:19:30;;;;;;;22.65;16.13;;;19.00;99.90;;;;;;5052421;28;20433;-84
2023/06/25 06:21:56;;;;;;;21.00;16.23;;;19.00;99.90;;;;;;5069206;28;20043;-84
2023/06/25 06:24:21;;;;;;;21.95;16.33;;;19.10;99.90;;;;;;5052346;28;20097;-84
2023/06/25 06:26:49;;;;;;;22.17;17.27;;;19.20;99.90;;;;;;5069556;28;20058;-84
2023/06/25 06:29:15;;;;;;;22.77;16.83;;;19.30;99.90;;;;;;5069412;28;20045;-84
2023/06/25 06:31:41;;;;;;;21.70;16.55;;;19.40;99.90;;;;;;5036050;28;20032;-84
2023/06/25 06:34:06;;;;;;;27.80;18.77;;;19.50;99.90;;;;;;5035594;28;20043;-84
2023/06/25 06:36:32;;;;;;;21.55;17.33;;;19.70;99.90;;;;;;5052386;28;20068;-84
2023/06/25 06:38:58;;;;;;;22.88;18.27;;;19.80;99.90;;;;;;5052242;28;20048;-84
2023/06/25 06:41:23;;;;;;;24.38;17.88;;;19.80;99.90;;;;;;5035737;28;20071;-83
2023/06/25 06:43:49;;;;;;;21.17;17.45;;;20.00;99.90;;;;;;5035574;28;20033;-83
2023/06/25 06:46:15;;;;;;;22.23;17.92;;;20.00;99.90;;;;;;5052709;28;20086;-83
2023/06/25 06:48:40;;;;;;;23.40;18.23;;;20.10;99.90;;;;;;5035413;28;20409;-85
2023/06/25 06:51:06;;;;;;;20.65;17.98;;;20.20;99.90;;;;;;5035905;28;20040;-84
2023/06/25 06:53:31;;;;;;;20.55;17.73;;;20.30;99.90;;;;;;5052298;28;20044;-84
2023/06/25 06:55:57;;;;;;;20.38;17.17;;;20.40;99.90;;;;;;5052046;28;20525;-84
2023/06/25 06:58:23;;;;;;;23.10;18.02;;;20.50;99.90;;;;;;5035599;28;20044;-84
2023/06/25 07:00:48;;;;;;;22.77;16.85;;;20.60;99.90;;;;;;5052226;28;20067;-85
2023/06/25 07:03:14;;;;;;;24.13;17.95;;;20.80;99.90;;;;;;5035891;28;20060;-85
2023/06/25 07:05:40;;;;;;;21.75;17.20;;;21.00;99.90;;;;;;5036244;28;20509;-85
2023/06/25 07:08:05;;;;;;;18.83;16.85;;;21.10;99.90;;;;;;5054625;28;20433;-85
2023/06/25 07:10:31;;;;;;;21.73;17.88;;;21.20;99.90;;;;;;5072669;28;20068;-85
2023/06/25 07:12:57;;;;;;;21.17;17.65;;;21.40;99.90;;;;;;5055718;28;20047;-85
2023/06/25 07:15:23;;;;;;;21.33;17.38;;;21.50;99.90;;;;;;5039421;28;20048;-86
2023/06/25 07:17:49;;;;;;;18.73;16.75;;;21.60;99.90;;;;;;5039161;28;20114;-85
2023/06/25 07:20:15;;;;;;;20.00;16.52;;;21.80;99.90;;;;;;5055681;28;20421;-85
2023/06/25 07:22:41;;;;;;;18.17;16.25;;;21.90;99.90;;;;;;5039110;28;20036;-85
2023/06/25 07:25:09;;;;;;;20.92;17.65;;;22.00;99.90;;;;;;5072701;28;20037;-85
2023/06/25 07:27:35;;;;;;;23.58;17.77;;;22.20;99.90;;;;;;5039707;28;20047;-86
2023/06/25 07:30:02;;;;;;;19.50;17.10;;;22.30;99.90;;;;;;5055767;28;20055;-85
2023/06/25 07:32:28;;;;;;;19.50;17.35;;;22.40;99.90;;;;;;5056225;28;20079;-85
2023/06/25 07:34:54;;;;;;;20.40;16.92;;;22.60;99.90;;;;;;5072840;28;20546;-85
2023/06/25 07:37:19;;;;;;;19.40;16.40;;;22.70;99.90;;;;;;5039504;28;20540;-85
2023/06/25 07:39:45;;;;;;;18.00;16.15;;;22.90;99.90;;;;;;5038995;28;20043;-86
2023/06/25 07:42:11;;;;;;;18.52;15.90;;;23.00;99.90;;;;;;5039064;28;20044;-86
2023/06/25 07:44:36;;;;;;;19.08;17.08;;;23.10;99.90;;;;;;5056323;28;20044;-86
2023/06/25 07:47:02;;;;;;;19.08;16.95;;;23.20;99.90;;;;;;5056507;28;20529;-86
2023/06/25 07:49:28;;;;;;;17.27;15.45;;;23.30;99.90;;;;;;5072055;28;20473;-87
2023/06/25 07:51:54;;;;;;;16.30;14.60;;;23.40;99.90;;;;;;5038997;28;20482;-86
2023/06/25 07:54:20;;;;;;;19.15;17.10;;;23.50;99.90;;;;;;5072093;28;20037;-86
2023/06/25 07:56:46;;;;;;;16.70;14.98;;;23.60;99.90;;;;;;5072329;28;20032;-86
2023/06/25 07:59:13;;;;;;;16.42;14.70;;;23.80;99.90;;;;;;5071852;28;20043;-85
2023/06/25 08:01:39;;;;;;;16.50;14.20;;;23.90;99.90;;;;;;5071831;28;20079;-86
2023/06/25 08:04:05;;;;;;;19.77;14.75;;;24.00;99.90;;;;;;5071850;28;20049;-85
2023/06/25 08:06:31;;;;;;;18.30;14.60;;;24.10;99.90;;;;;;5054864;28;20036;-85
2023/06/25 08:08:57;;;;;;;15.30;13.70;;;24.30;99.90;;;;;;5038021;28;20080;-86
2023/06/25 08:11:23;;;;;;;17.35;14.85;;;24.40;99.90;;;;;;5054730;28;20130;-85
2023/06/25 08:13:49;;;;;;;16.48;13.20;;;24.50;99.90;;;;;;5054512;28;20044;-85
2023/06/25 08:16:14;;;;;;;15.85;13.00;;;24.60;99.90;;;;;;5054632;28;20140;-86
2023/06/25 08:18:40;;;;;;;15.10;12.32;;;24.70;99.90;;;;;;5053299;28;20044;-85
2023/06/25 08:21:06;;;;;;;12.45;11.07;;;24.90;99.90;;;;;;5038255;28;20131;-85
2023/06/25 08:23:32;;;;;;;15.10;12.15;;;25.00;99.90;;;;;;5037876;28;20486;-85
2023/06/25 08:25:58;;;;;;;16.23;12.27;;;25.20;99.90;;;;;;5037843;28;20098;-85
2023/06/25 08:28:24;;;;;;;12.18;10.93;;;25.20;99.90;;;;;;5054357;28;20047;-86
2023/06/25 08:30:49;;;;;;;11.52;10.32;;;25.40;99.90;;;;;;5037894;28;20040;-85
2023/06/25 08:33:15;;;;;;;12.45;10.55;;;25.50;99.90;;;;;;5054351;28;20044;-85
2023/06/25 08:35:41;;;;;;;13.30;10.05;;;25.60;99.90;;;;;;5037751;28;20032;-85
2023/06/25 08:38:06;;;;;;;10.27;9.05;;;25.80;99.90;;;;;;5037561;28;20115;-85
2023/06/25 08:40:35;;;;;;;9.05;8.15;;;25.90;99.90;;;;;;5054063;28;20047;-86
2023/06/25 08:43:00;;;;;;;10.80;7.50;;;26.10;99.90;;;;;;5070904;28;20113;-84
2023/06/25 08:45:26;;;;;;;9.40;8.50;;;26.20;99.90;;;;;;5037555;28;20405;-85
2023/06/25 08:47:57;;;;;;;11.65;8.40;;;26.30;99.90;;;;;;5053883;28;20074;-86
2023/06/25 08:50:24;;;;;;;8.50;7.55;;;26.40;99.90;;;;;;5054280;28;20378;-85
2023/06/25 08:52:50;;;;;;;8.40;7.43;;;26.50;99.90;;;;;;5070537;28;20401;-85
2023/06/25 08:55:17;;;;;;;7.93;7.22;;;26.70;99.90;;;;;;5070605;28;20042;-86
2023/06/25 08:57:43;;;;;;;9.35;7.28;;;26.70;99.90;;;;;;5054263;28;20040;-82
2023/06/25 09:00:09;;;;;;;11.35;7.13;;;26.80;99.90;;;;;;5053987;28;20573;-83
2023/06/25 09:02:35;;;;;;;9.73;7.30;;;26.90;99.90;;;;;;5037358;28;20068;-82
2023/06/25 09:05:12;;;;;;;8.55;6.25;;;27.00;99.70;;;;;;5037194;28;20078;-83
2023/06/25 09:07:45;;;;;;;6.82;6.10;;;27.10;98.40;;;;;;5037960;28;20485;-83
2023/06/25 09:10:11;;;;;;;8.13;7.13;;;27.20;98.20;;;;;;5070732;28;20040;-82
2023/06/25 09:12:37;;;;;;;7.90;6.95;;;27.20;97.80;;;;;;5053447;28;20113;-83
2023/06/25 09:15:03;;;;;;;8.00;5.22;;;27.40;97.00;;;;;;5070448;28;20191;-82
2023/06/25 09:17:29;;;;;;;6.80;6.10;;;27.50;97.20;;;;;;5053579;28;20066;-82
2023/06/25 09:19:55;;;;;;;5.43;4.80;;;27.60;95.60;;;;;;5053377;28;20045;-82
2023/06/25 09:22:20;;;;;;;5.78;4.60;;;27.70;93.70;;;;;;5036820;28;20043;-82
2023/06/25 09:24:49;;;;;;;7.25;5.47;;;27.70;91.30;;;;;;5053874;28;20051;-82
2023/06/25 09:27:20;;;;;;;7.40;5.40;;;27.80;90.50;;;;;;5053146;28;20036;-82
2023/06/25 09:29:45;;;;;;;8.35;4.82;;;27.90;89.80;;;;;;5052850;28;20090;-82
2023/06/25 09:32:11;;;;;;;6.97;5.32;;;28.00;90.30;;;;;;5053508;28;20099;-82
2023/06/25 09:34:41;;;;;;;6.75;5.57;;;28.10;89.50;;;;;;5053496;28;20082;-82
2023/06/25 09:37:06;;;;;;;6.18;4.88;;;28.20;88.80;;;;;;5053478;28;20040;-83
2023/06/25 09:39:32;;;;;;;7.13;5.43;;;28.20;89.40;;;;;;5069746;28;20036;-82
2023/06/25 09:42:00;;;;;;;10.13;5.97;;;28.30;87.70;;;;;;5052815;28;20036;-81
2023/06/25 09:44:28;;;;;;;5.85;5.22;;;28.40;87.50;;;;;;5053122;28;20044;-82
2023/06/25 09:47:04;;;;;;;7.88;5.65;;;28.50;86.90;;;;;;5036818;28;20398;-82
2023/06/25 09:49:31;;;;;;;7.90;4.95;;;28.60;84.90;;;;;;5052727;28;20404;-81
2023/06/25 09:52:12;;;;;;;6.30;4.97;;;28.70;85.20;;;;;;5069512;28;20041;-82
2023/06/25 09:54:40;;;;;;;7.53;5.40;;;28.90;84.20;;;;;;5069842;28;20532;-82
2023/06/25 09:57:12;;;;;;;8.43;5.60;;;29.00;85.00;;;;;;5052851;28;20083;-83
2023/06/25 09:59:38;;;;;;;7.57;5.35;;;29.20;82.40;;;;;;5069407;28;20262;-82
2023/06/25 10:02:07;;;;;;;9.15;5.65;;;29.20;82.50;;;;;;5036761;28;20044;-83
2023/06/25 10:04:34;;;;;;;7.95;5.47;;;29.20;80.70;;;;;;5053751;28;20043;-83
2023/06/25 10:07:04;;;;;;;7.75;5.22;;;29.40;81.90;;;;;;5070361;28;20048;-83
2023/06/25 10:09:30;;;;;;;10.52;5.70;;;29.50;82.20;;;;;;5037092;28;20060;-83
2023/06/25 10:11:57;;;;;;;9.27;5.90;;;29.60;81.10;;;;;;5069861;28;20151;-83
2023/06/25 10:14:23;;;;;;;8.75;5.65;;;29.70;79.90;;;;;;5070464;28;20047;-85
2023/06/25 10:16:56;;;;;;;6.22;4.95;;;29.70;77.80;;;;;;5070340;28;20067;-83
2023/06/25 10:19:26;;;;;;;8.77;5.43;;;29.80;77.50;;;;;;5070322;28;20123;-83
2023/06/25 10:22:16;;;;;;;9.50;5.50;;;29.90;77.80;;;;;;5070059;28;20044;-82
2023/06/25 10:24:46;;;;;;;7.10;5.55;;;30.00;73.80;;;;;;5053682;28;20036;-82
2023/06/25 10:27:24;;;;;;;8.15;5.15;;;30.10;76.50;;;;;;5037613;28;20545;-83
2023/06/25 10:29:50;;;;;;;5.88;4.63;;;30.30;77.60;;;;;;5070878;28;20048;-83
2023/06/25 10:32:27;;;;;;;5.53;4.90;;;30.40;76.90;;;;;;5053974;28;20081;-83
2023/06/25 10:34:54;;;;;;;8.40;5.82;;;30.50;76.30;;;;;;5070336;28;20128;-84
2023/06/25 10:37:20;;;;;;;5.57;4.93;;;30.60;75.30;;;;;;5037458;28;20062;-83
2023/06/25 10:39:46;;;;;;;5.40;4.85;;;30.50;73.50;;;;;;5053926;28;20556;-84
2023/06/25 10:42:13;;;;;;;7.72;4.95;;;30.50;72.90;;;;;;5038693;28;20123;-84
2023/06/25 10:44:40;;;;;;;6.75;4.90;;;30.60;74.30;;;;;;5075082;28;20074;-84
2023/06/25 10:47:10;;;;;;;8.63;4.88;;;30.60;73.90;;;;;;5074473;28;20044;-84
2023/06/25 10:49:36;;;;;;;6.53;4.75;;;30.70;74.00;;;;;;5056887;28;20036;-81
2023/06/25 10:52:03;;;;;;;9.02;5.13;;;30.80;75.20;;;;;;5057237;28;20032;-82
2023/06/25 10:54:31;;;;;;;6.68;4.40;;;30.90;73.10;;;;;;5057139;28;20032;-81
2023/06/25 10:57:14;;;;;;;5.38;4.20;;;31.00;71.70;;;;;;5057315;28;20127;-80
2023/06/25 10:59:43;;;;;;;6.80;4.95;;;31.10;71.40;;;;;;5040870;28;20134;-82
2023/06/25 11:02:21;;;;;;;6.10;4.53;;;31.10;71.40;;;;;;5057676;28;20044;-82
2023/06/25 11:04:56;;;;;;;5.00;4.18;;;31.10;71.60;;;;;;5056897;28;20069;-82
2023/06/25 11:07:23;;;;;;;7.13;4.22;;;31.20;71.80;;;;;;5057214;28;20560;-81
2023/06/25 11:09:59;;;;;;;5.20;4.60;;;31.30;71.50;;;;;;5073251;28;20052;-83
2023/06/25 11:12:25;;;;;;;5.28;4.22;;;31.30;68.20;;;;;;5039647;28;20098;-81
2023/06/25 11:14:51;;;;;;;5.38;4.32;;;31.20;70.80;;;;;;5057151;28;20125;-81
2023/06/25 11:17:17;;;;;;;7.63;4.60;;;31.30;71.10;;;;;;5056727;28;20498;-82
2023/06/25 11:19:49;;;;;;;7.10;4.30;;;31.40;70.90;;;;;;5057133;28;20123;-83
2023/06/25 11:22:15;;;;;;;4.57;4.10;;;31.50;71.00;;;;;;5073762;28;20105;-83
2023/06/25 11:24:40;;;;;;;5.20;3.92;;;31.60;70.40;;;;;;5057197;28;20463;-83
2023/06/25 11:27:07;;;;;;;5.18;4.32;;;31.60;69.00;;;;;;5056902;28;20543;-83
2023/06/25 11:29:37;;;;;;;4.18;3.78;;;31.60;68.70;;;;;;5073259;28;20127;-83
2023/06/25 11:32:05;;;;;;;6.18;4.28;;;31.70;69.40;;;;;;5040276;28;20127;-82
2023/06/25 11:34:32;;;;;;;5.18;4.30;;;31.70;69.70;;;;;;5056653;28;20033;-82
2023/06/25 11:37:14;;;;;;;5.55;4.47;;;31.70;68.30;;;;;;5056916;28;20040;-82
2023/06/25 11:39:50;;;;;;;6.18;4.10;;;31.80;68.40;;;;;;5056015;28;20044;-81
2023/06/25 11:42:22;;;;;;;7.50;4.72;;;31.80;69.80;;;;;;5055645;28;20039;-81
2023/06/25 11:45:02;;;;;;;5.97;4.25;;;31.80;68.80;;;;;;5072137;28;20150;-82
2023/06/25 11:47:28;;;;;;;5.75;4.10;;;31.80;67.40;;;;;;5039203;28;20088;-82
2023/06/25 11:49:56;;;;;;;5.65;4.68;;;31.70;67.90;;;;;;5055220;28;20045;-83
2023/06/25 11:52:22;;;;;;;6.13;4.80;;;31.80;68.50;;;;;;5055290;28;20044;-84
2023/06/25 11:54:48;;;;;;;5.13;3.92;;;31.80;68.70;;;;;;5071926;28;20036;-84
2023/06/25 11:57:15;;;;;;;6.00;4.57;;;31.90;69.20;;;;;;5055453;28;20383;-84
2023/06/25 11:59:44;;;;;;;6.88;4.72;;;31.90;68.40;;;;;;5055391;28;20045;-83
2023/06/25 12:02:13;;;;;;;4.82;4.25;;;31.90;69.00;;;;;;5072499;28;20374;-82
2023/06/25 12:04:39;;;;;;;5.20;4.40;;;31.90;69.00;;;;;;5039547;28;20131;-85
2023/06/25 12:07:04;;;;;;;6.88;4.70;;;32.00;69.80;;;;;;5072634;28;20449;-85
2023/06/25 12:09:30;;;;;;;6.28;4.97;;;32.10;69.60;;;;;;5038269;28;20056;-85
2023/06/25 12:11:56;;;;;;;7.20;5.32;;;32.20;69.60;;;;;;5055363;28;20044;-87
2023/06/25 12:14:22;;;;;;;5.95;5.20;;;32.20;69.10;;;;;;5073164;28;20102;-87
2023/06/25 12:16:48;;;;;;;5.05;4.50;;;32.10;68.90;;;;;;5072434;28;20037;-86
2023/06/25 12:19:15;;;;;;;5.10;4.47;;;32.30;68.80;;;;;;5055424;28;20375;-85
2023/06/25 12:21:40;;;;;;;12.20;4.78;;;32.30;68.80;;;;;;5040430;28;20036;-86
2023/06/25 12:24:06;;;;;;;9.50;5.30;;;32.30;69.40;;;;;;5039519;28;20063;-87
2023/06/25 12:26:32;;;;;;;6.05;4.75;;;32.40;70.50;;;;;;5041161;28;20045;-86
2023/06/25 12:28:57;;;;;;;4.93;4.38;;;32.40;69.30;;;;;;5056542;28;20476;-84
2023/06/25 12:31:23;;;;;;;6.60;5.03;;;32.50;69.40;;;;;;5039936;28;20090;-83